createdAt,value
2023-05-22T00:00:14.138Z,24.30
2023-05-22T00:05:18.581Z,23.03
2023-05-22T00:10:21.311Z,19.65
2023-05-22T00:15:24.181Z,19.08
2023-05-22T00:20:27.388Z,19.70
2023-05-22T00:25:30.836Z,14.82
2023-05-22T00:30:33.632Z,18.38
2023-05-22T00:35:39.362Z,17.75
2023-05-22T00:40:42.165Z,21.92
2023-05-22T00:45:48.772Z,16.08
2023-05-22T00:50:54.476Z,18.00
2023-05-22T00:55:57.794Z,22.33
2023-05-22T01:01:03.685Z,15.85
2023-05-22T01:06:06.715Z,20.23
2023-05-22T01:11:29.454Z,16.77
2023-05-22T01:17:01.121Z,15.43
2023-05-22T01:22:32.430Z,20.92
2023-05-22T01:27:50.292Z,20.45
2023-05-22T01:32:55.576Z,25.27
2023-05-22T01:37:58.805Z,17.92
2023-05-22T01:43:01.712Z,16.75
2023-05-22T01:48:04.745Z,24.50
2023-05-22T01:53:32.853Z,27.20
2023-05-22T01:58:53.398Z,17.08
2023-05-22T02:03:57.705Z,19.15
2023-05-22T02:14:06.048Z,17.60
2023-05-22T02:19:09.136Z,19.75
2023-05-22T02:24:16.868Z,21.40
2023-05-22T02:29:20.572Z,19.92
2023-05-22T02:34:23.250Z,16.85
2023-05-22T02:39:27.380Z,19.73
2023-05-22T02:44:32.790Z,17.08
2023-05-22T02:49:35.935Z,18.38
2023-05-22T02:54:39.302Z,17.77
2023-05-22T02:59:42.515Z,17.98
2023-05-22T03:04:46.593Z,28.35
2023-05-22T03:09:50.153Z,20.83
2023-05-22T03:14:53.139Z,21.77
2023-05-22T03:19:55.944Z,26.63
2023-05-22T03:25:00.188Z,29.65
2023-05-22T03:30:04.075Z,27.67
2023-05-22T03:35:08.899Z,31.63
2023-05-22T03:40:12.524Z,20.77
2023-05-22T03:45:15.198Z,21.67
2023-05-22T03:50:18.306Z,22.85
2023-05-22T03:55:21.478Z,18.92
2023-05-22T04:00:26.306Z,27.15
2023-05-22T04:05:30.381Z,22.63
2023-05-22T04:10:33.464Z,25.27
2023-05-22T04:15:36.669Z,23.85
2023-05-22T04:20:39.732Z,31.33
2023-05-22T04:25:42.557Z,35.60
2023-05-22T04:30:45.649Z,23.10
2023-05-22T04:35:48.356Z,35.83
2023-05-22T04:40:52.218Z,29.52
2023-05-22T04:45:54.990Z,28.15
2023-05-22T04:50:58.552Z,25.40
2023-05-22T04:56:01.437Z,23.50
2023-05-22T05:01:05.282Z,31.60
2023-05-22T05:06:10.211Z,35.75
2023-05-22T05:11:13.198Z,34.53
2023-05-22T05:16:16.147Z,28.30
2023-05-22T05:21:19.789Z,34.05
2023-05-22T05:26:24.113Z,33.80
2023-05-22T05:36:52.729Z,30.90
2023-05-22T05:41:57.415Z,37.58
2023-05-22T05:47:00.130Z,32.58
2023-05-22T05:52:05.156Z,38.58
2023-05-22T05:57:10.591Z,31.10
2023-05-22T06:02:13.599Z,32.75
2023-05-22T06:07:18.555Z,34.95
2023-05-22T06:12:25.777Z,28.40
2023-05-22T06:17:29.326Z,36.17
2023-05-22T06:22:32.255Z,36.60
2023-05-22T06:27:35.556Z,36.20
2023-05-22T06:32:38.962Z,33.67
2023-05-22T06:38:02.050Z,32.60
2023-05-22T06:43:04.815Z,28.80
2023-05-22T06:48:27.613Z,28.02
2023-05-22T06:53:37.510Z,27.02
2023-05-22T06:58:50.038Z,21.75
2023-05-22T07:04:24.296Z,25.77
2023-05-22T07:09:58.714Z,24.60
2023-05-22T07:15:24.255Z,23.40
2023-05-22T07:20:29.825Z,23.40
2023-05-22T07:25:47.815Z,22.92
2023-05-22T07:30:52.078Z,21.13
2023-05-22T07:35:56.231Z,20.77
2023-05-22T07:40:59.175Z,19.40
2023-05-22T07:46:03.606Z,20.38
2023-05-22T07:51:20.135Z,17.08
2023-05-22T07:56:27.603Z,17.13
2023-05-22T08:01:31.793Z,16.17
2023-05-22T08:06:39.596Z,15.63
2023-05-22T08:11:50.281Z,15.20
2023-05-22T08:17:02.198Z,17.13
2023-05-22T08:22:05.104Z,14.98
2023-05-22T08:27:07.928Z,17.70
2023-05-22T08:32:10.694Z,15.98
2023-05-22T08:37:16.475Z,15.50
2023-05-22T08:42:19.717Z,15.50
2023-05-22T08:47:26.092Z,18.88
2023-05-22T08:52:53.055Z,16.88
2023-05-22T08:57:58.489Z,14.75
2023-05-22T09:03:01.294Z,17.05
2023-05-22T09:08:16.019Z,19.17
2023-05-22T09:13:30.116Z,18.05
2023-05-22T09:18:32.854Z,16.38
2023-05-22T09:23:35.663Z,20.40
2023-05-22T09:28:38.384Z,18.55
2023-05-22T09:33:45.308Z,18.05
2023-05-22T09:38:48.126Z,18.58
2023-05-22T09:48:56.121Z,16.15
2023-05-22T09:59:09.537Z,16.58
2023-05-22T10:04:14.456Z,14.00
2023-05-22T10:09:19.629Z,13.90
2023-05-22T10:14:23.148Z,13.23
2023-05-22T10:19:27.907Z,11.30
2023-05-22T10:24:31.728Z,12.65
2023-05-22T10:29:41.372Z,12.85
2023-05-22T10:35:14.792Z,12.05
2023-05-22T10:40:42.079Z,10.80
2023-05-22T10:45:48.170Z,10.88
2023-05-22T10:50:55.046Z,10.52
2023-05-22T10:56:02.745Z,11.40
2023-05-22T11:01:16.674Z,11.70
2023-05-22T11:06:38.347Z,11.02
2023-05-22T11:16:44.145Z,11.35
2023-05-22T11:21:48.726Z,11.27
2023-05-22T11:27:03.321Z,10.48
2023-05-22T11:32:08.481Z,10.90
2023-05-22T11:37:11.268Z,11.90
2023-05-22T11:42:16.959Z,10.80
2023-05-22T11:47:19.672Z,10.52
2023-05-22T11:52:23.717Z,10.77
2023-05-22T11:57:26.907Z,9.73
2023-05-22T12:02:30.652Z,10.82
2023-05-22T12:07:33.440Z,9.90
2023-05-22T12:12:38.576Z,10.70
2023-05-22T12:17:41.449Z,9.48
2023-05-22T12:22:44.379Z,9.35
2023-05-22T12:27:47.510Z,9.40
2023-05-22T12:32:51.505Z,10.20
2023-05-22T12:37:54.316Z,12.02
2023-05-22T12:42:58.413Z,11.65
2023-05-22T12:48:05.165Z,10.13
2023-05-22T12:53:08.076Z,10.07
2023-05-22T12:58:11.138Z,10.65
2023-05-22T13:03:13.931Z,11.85
2023-05-22T13:08:16.679Z,10.95
2023-05-22T13:13:19.438Z,11.77
2023-05-22T13:18:22.437Z,10.93
2023-05-22T13:23:27.409Z,10.57
2023-05-22T13:28:30.388Z,10.68
2023-05-22T13:33:33.617Z,10.32
2023-05-22T13:38:36.386Z,11.07
2023-05-22T13:43:39.614Z,10.82
2023-05-22T13:48:44.344Z,11.93
2023-05-22T13:53:47.111Z,10.63
2023-05-22T13:58:49.666Z,10.35
2023-05-22T14:03:52.682Z,10.43
2023-05-22T14:08:55.611Z,10.52
2023-05-22T14:13:58.281Z,11.43
2023-05-22T14:19:01.390Z,10.57
2023-05-22T14:24:04.532Z,9.30
2023-05-22T14:29:07.453Z,10.45
2023-05-22T14:34:10.396Z,9.27
2023-05-22T14:39:13.334Z,9.50
2023-05-22T14:44:34.763Z,9.38
2023-05-22T14:49:37.361Z,8.55
2023-05-22T14:54:40.182Z,7.75
2023-05-22T14:59:42.937Z,7.32
2023-05-22T15:04:46.512Z,7.15
2023-05-22T15:09:50.139Z,7.78
2023-05-22T15:14:53.410Z,6.55
2023-05-22T15:19:57.152Z,6.88
2023-05-22T15:25:18.115Z,6.63
2023-05-22T15:30:26.108Z,6.68
2023-05-22T15:35:32.562Z,7.07
2023-05-22T15:40:39.744Z,7.10
2023-05-22T15:45:47.371Z,5.78
2023-05-22T15:50:50.146Z,4.90
2023-05-22T15:55:53.541Z,5.35
2023-05-22T16:00:59.410Z,4.15
2023-05-22T16:06:04.420Z,4.68
2023-05-22T16:11:10.012Z,4.50
2023-05-22T16:16:13.504Z,4.38
2023-05-22T16:21:16.272Z,4.40
2023-05-22T16:26:19.105Z,4.60
2023-05-22T16:31:24.548Z,4.63
2023-05-22T16:36:27.474Z,4.28
2023-05-22T16:46:32.947Z,4.78
2023-05-22T16:51:35.635Z,4.85
2023-05-22T16:56:39.952Z,5.10
2023-05-22T17:01:44.041Z,4.90
2023-05-22T17:06:49.027Z,5.18
2023-05-22T17:11:51.748Z,5.47
2023-05-22T17:16:57.599Z,5.90
2023-05-22T17:22:00.368Z,6.60
2023-05-22T17:27:03.585Z,5.73
2023-05-22T17:32:06.694Z,5.40
2023-05-22T17:37:10.377Z,5.72
2023-05-22T17:42:13.252Z,5.35
2023-05-22T17:47:18.397Z,5.93
2023-05-22T17:52:21.007Z,6.07
2023-05-22T17:57:23.789Z,5.90
2023-05-22T18:02:26.978Z,6.03
2023-05-22T18:07:29.992Z,6.25
2023-05-22T18:12:32.622Z,6.30
2023-05-22T18:17:35.463Z,5.30
2023-05-22T18:22:43.471Z,5.95
2023-05-22T18:27:46.924Z,6.38
2023-05-22T18:32:49.801Z,6.15
2023-05-22T18:37:52.584Z,6.10
2023-05-22T18:42:55.204Z,6.25
2023-05-22T18:47:57.991Z,6.57
2023-05-22T18:53:03.032Z,7.32
2023-05-22T18:58:05.986Z,6.85
2023-05-22T19:03:11.368Z,6.87
2023-05-22T19:08:14.201Z,6.97
2023-05-22T19:13:16.872Z,6.18
2023-05-22T19:18:19.843Z,6.78
2023-05-22T19:23:22.639Z,5.90
2023-05-22T19:28:27.829Z,6.25
2023-05-22T19:33:33.875Z,6.78
2023-05-22T19:38:37.040Z,7.03
2023-05-22T19:43:40.001Z,7.83
2023-05-22T19:48:42.879Z,6.80
2023-05-22T19:53:46.096Z,7.77
2023-05-22T19:59:07.412Z,8.15
2023-05-22T20:04:10.160Z,9.63
2023-05-22T20:09:12.829Z,9.50
2023-05-22T20:14:15.468Z,8.32
2023-05-22T20:19:24.505Z,10.13
2023-05-22T20:24:27.296Z,9.90
2023-05-22T20:29:30.674Z,10.02
2023-05-22T20:34:33.849Z,10.67
2023-05-22T20:39:36.959Z,11.43
2023-05-22T20:44:39.823Z,11.67
2023-05-22T20:49:47.991Z,9.20
2023-05-22T20:54:52.049Z,8.27
2023-05-22T20:59:55.100Z,6.63
2023-05-22T21:04:57.864Z,6.70
2023-05-22T21:10:00.873Z,6.78
2023-05-22T21:15:04.073Z,6.60
2023-05-22T21:20:08.239Z,5.90
2023-05-22T21:25:11.305Z,5.97
2023-05-22T21:30:15.257Z,5.82
2023-05-22T21:35:20.711Z,5.72
2023-05-22T21:40:24.823Z,6.22
2023-05-22T21:45:27.474Z,6.83
2023-05-22T21:50:30.250Z,6.32
2023-05-22T21:55:33.286Z,6.32
2023-05-22T22:00:38.967Z,5.93
2023-05-22T22:05:41.878Z,6.63
2023-05-22T22:10:48.574Z,6.93
2023-05-22T22:15:51.524Z,7.47
2023-05-22T22:20:55.916Z,7.78
2023-05-22T22:26:17.149Z,7.43
2023-05-22T22:31:19.967Z,8.23
2023-05-22T22:36:23.211Z,7.90
2023-05-22T22:41:26.158Z,9.20
2023-05-22T22:46:29.126Z,9.98
2023-05-22T22:51:31.895Z,8.85
2023-05-22T22:56:34.618Z,8.70
2023-05-22T23:01:37.617Z,9.25
2023-05-22T23:06:42.383Z,10.98
2023-05-22T23:11:45.375Z,9.77
2023-05-22T23:16:48.261Z,11.30
2023-05-22T23:21:51.954Z,11.70
2023-05-22T23:26:54.980Z,12.38
2023-05-22T23:31:57.802Z,12.45
2023-05-22T23:37:01.903Z,11.02
2023-05-22T23:42:04.891Z,12.02
2023-05-22T23:47:07.817Z,11.00
2023-05-22T23:52:12.369Z,12.70
2023-05-22T23:57:16.756Z,11.70
